HAAB/ADD METAR and TAF weather

Enter ICAO airport designator
Station Type Date Time Source
HAAB METAR 2020/01/20 13:00 UTC NOAA

HAAB 201300Z 16007KT C A V O K 22/06 Q1025


Station Type Date Time Source
HAAB Decoded METAR 2020/01/20 13:00 UTC NOAA

Addis Ababa, Ethiopia (HAAB) 08-59N 038-48E 2324M
Jan 20, 2020 - 08:00 AM EST / 2020.01.20 1300 UTC
Wind: from the SSE (160 degrees) at 8 MPH (7 KT):0
Temperature: 71 F (22 C)
Dew Point: 42 F (6 C)
Relative Humidity: 35%
Pressure (altimeter): 30.27 in. Hg (1025 hPa)
ob: HAAB 201300Z 16007KT C A V O K 22/06 Q1025
cycle: 13

Station Type Date Time Source
HAAB TAF 2020/01/20 12:21 UTC NOAA

TAF TAF HAAB 200930Z 2012/2118 12010KT 9999 SCT030 FEW090
BECMG 2015/2019 14009KT FEW030

Example: see airport list